<?xml version="1.0" encoding="UTF-8" standalone="no" ?>
<gpx xmlns="http://www.topografix.com/GPX/1/1" xmlns:xsi="http://www.w3.org/2001/XMLSchema-instance" xsi:schemaLocation="http://www.topografix.com/GPX/1/1 http://www.topografix.com/GPX/1/1/gpx.xsd" version="1.1" creator="VisuGPX - https://www.visugpx.com">
  <metadata>
    <name>St Jean de Thurac 8.9 km</name>
  </metadata>
  <trk>
    <name><![CDATA[2025 11 11 St Jean de Thurac 8]]></name>
    <extensions>
      <line xmlns="http://www.topografix.com/GPX/gpx_style/0/2">
        <color>0000FF</color>
        <width>4</width>
      </line>
    </extensions>
    <trkseg>
      <trkpt lat="44.14954" lon="0.75534">
        <ele>47</ele>
        <time>2025-11-11T13:07:49.421Z</time>
      </trkpt>
      <trkpt lat="44.14948" lon="0.75557">
        <ele>45</ele>
        <time>2025-11-11T13:08:05.421Z</time>
      </trkpt>
      <trkpt lat="44.14949" lon="0.75564">
        <ele>46</ele>
        <time>2025-11-11T13:08:09.421Z</time>
      </trkpt>
      <trkpt lat="44.14949" lon="0.75571">
        <ele>46</ele>
        <time>2025-11-11T13:08:13.421Z</time>
      </trkpt>
      <trkpt lat="44.14943" lon="0.75584">
        <ele>46</ele>
        <time>2025-11-11T13:08:21.421Z</time>
      </trkpt>
      <trkpt lat="44.14947" lon="0.75595">
        <ele>45</ele>
        <time>2025-11-11T13:08:29.421Z</time>
      </trkpt>
      <trkpt lat="44.14953" lon="0.75604">
        <ele>46</ele>
        <time>2025-11-11T13:08:37.421Z</time>
      </trkpt>
      <trkpt lat="44.14958" lon="0.75607">
        <ele>49</ele>
        <time>2025-11-11T13:08:45.421Z</time>
      </trkpt>
      <trkpt lat="44.1496" lon="0.75611">
        <ele>53</ele>
        <time>2025-11-11T13:09:07.421Z</time>
      </trkpt>
      <trkpt lat="44.14964" lon="0.75611">
        <ele>53</ele>
        <time>2025-11-11T13:09:15.421Z</time>
      </trkpt>
      <trkpt lat="44.1497" lon="0.75613">
        <ele>52</ele>
        <time>2025-11-11T13:09:19.421Z</time>
      </trkpt>
      <trkpt lat="44.14973" lon="0.75618">
        <ele>50</ele>
        <time>2025-11-11T13:09:23.421Z</time>
      </trkpt>
      <trkpt lat="44.1503" lon="0.7563">
        <ele>49</ele>
        <time>2025-11-11T13:10:11.421Z</time>
      </trkpt>
      <trkpt lat="44.15061" lon="0.75641">
        <ele>47</ele>
        <time>2025-11-11T13:10:35.421Z</time>
      </trkpt>
      <trkpt lat="44.15078" lon="0.75644">
        <ele>51</ele>
        <time>2025-11-11T13:10:51.421Z</time>
      </trkpt>
      <trkpt lat="44.15098" lon="0.75653">
        <ele>52</ele>
        <time>2025-11-11T13:11:07.421Z</time>
      </trkpt>
      <trkpt lat="44.15116" lon="0.75664">
        <ele>55</ele>
        <time>2025-11-11T13:11:27.421Z</time>
      </trkpt>
      <trkpt lat="44.15137" lon="0.75695">
        <ele>50</ele>
        <time>2025-11-11T13:11:51.421Z</time>
      </trkpt>
      <trkpt lat="44.15151" lon="0.75708">
        <ele>54</ele>
        <time>2025-11-11T13:12:07.421Z</time>
      </trkpt>
      <trkpt lat="44.15164" lon="0.75729">
        <ele>54</ele>
        <time>2025-11-11T13:12:23.421Z</time>
      </trkpt>
      <trkpt lat="44.1518" lon="0.75745">
        <ele>52</ele>
        <time>2025-11-11T13:12:43.421Z</time>
      </trkpt>
      <trkpt lat="44.15189" lon="0.75744">
        <ele>53</ele>
        <time>2025-11-11T13:12:51.421Z</time>
      </trkpt>
      <trkpt lat="44.15209" lon="0.75734">
        <ele>76</ele>
        <time>2025-11-11T13:13:11.421Z</time>
      </trkpt>
      <trkpt lat="44.15219" lon="0.75724">
        <ele>81</ele>
        <time>2025-11-11T13:13:23.421Z</time>
      </trkpt>
      <trkpt lat="44.15236" lon="0.75718">
        <ele>71</ele>
        <time>2025-11-11T13:14:03.421Z</time>
      </trkpt>
      <trkpt lat="44.1524" lon="0.75714">
        <ele>74</ele>
        <time>2025-11-11T13:14:07.421Z</time>
      </trkpt>
      <trkpt lat="44.1525" lon="0.75711">
        <ele>77</ele>
        <time>2025-11-11T13:14:15.421Z</time>
      </trkpt>
      <trkpt lat="44.1526" lon="0.75705">
        <ele>82</ele>
        <time>2025-11-11T13:14:23.421Z</time>
      </trkpt>
      <trkpt lat="44.15285" lon="0.75697">
        <ele>77</ele>
        <time>2025-11-11T13:14:47.421Z</time>
      </trkpt>
      <trkpt lat="44.15286" lon="0.75699">
        <ele>75</ele>
        <time>2025-11-11T13:14:51.421Z</time>
      </trkpt>
      <trkpt lat="44.15303" lon="0.75696">
        <ele>75</ele>
        <time>2025-11-11T13:15:07.421Z</time>
      </trkpt>
      <trkpt lat="44.15319" lon="0.75695">
        <ele>76</ele>
        <time>2025-11-11T13:15:23.421Z</time>
      </trkpt>
      <trkpt lat="44.15337" lon="0.75692">
        <ele>79</ele>
        <time>2025-11-11T13:15:39.421Z</time>
      </trkpt>
      <trkpt lat="44.15365" lon="0.75689">
        <ele>77</ele>
        <time>2025-11-11T13:16:07.421Z</time>
      </trkpt>
      <trkpt lat="44.15379" lon="0.75686">
        <ele>79</ele>
        <time>2025-11-11T13:16:23.421Z</time>
      </trkpt>
      <trkpt lat="44.15417" lon="0.75672">
        <ele>89</ele>
        <time>2025-11-11T13:16:55.421Z</time>
      </trkpt>
      <trkpt lat="44.15427" lon="0.75671">
        <ele>90</ele>
        <time>2025-11-11T13:17:03.421Z</time>
      </trkpt>
      <trkpt lat="44.15436" lon="0.75673">
        <ele>91</ele>
        <time>2025-11-11T13:17:11.421Z</time>
      </trkpt>
      <trkpt lat="44.15466" lon="0.75659">
        <ele>85</ele>
        <time>2025-11-11T13:17:39.421Z</time>
      </trkpt>
      <trkpt lat="44.15484" lon="0.7565">
        <ele>87</ele>
        <time>2025-11-11T13:17:55.421Z</time>
      </trkpt>
      <trkpt lat="44.15522" lon="0.75636">
        <ele>90</ele>
        <time>2025-11-11T13:18:27.421Z</time>
      </trkpt>
      <trkpt lat="44.1554" lon="0.75631">
        <ele>91</ele>
        <time>2025-11-11T13:18:43.421Z</time>
      </trkpt>
      <trkpt lat="44.15551" lon="0.7563">
        <ele>87</ele>
        <time>2025-11-11T13:18:55.421Z</time>
      </trkpt>
      <trkpt lat="44.1557" lon="0.75632">
        <ele>90</ele>
        <time>2025-11-11T13:19:11.421Z</time>
      </trkpt>
      <trkpt lat="44.15591" lon="0.75637">
        <ele>93</ele>
        <time>2025-11-11T13:19:27.421Z</time>
      </trkpt>
      <trkpt lat="44.15604" lon="0.75646">
        <ele>93</ele>
        <time>2025-11-11T13:19:39.421Z</time>
      </trkpt>
      <trkpt lat="44.15627" lon="0.75684">
        <ele>90</ele>
        <time>2025-11-11T13:20:03.421Z</time>
      </trkpt>
      <trkpt lat="44.15647" lon="0.75729">
        <ele>89</ele>
        <time>2025-11-11T13:20:35.421Z</time>
      </trkpt>
      <trkpt lat="44.15659" lon="0.7575">
        <ele>90</ele>
        <time>2025-11-11T13:20:51.421Z</time>
      </trkpt>
      <trkpt lat="44.1567" lon="0.75805">
        <ele>97</ele>
        <time>2025-11-11T13:21:31.421Z</time>
      </trkpt>
      <trkpt lat="44.15675" lon="0.75822">
        <ele>98</ele>
        <time>2025-11-11T13:21:43.421Z</time>
      </trkpt>
      <trkpt lat="44.15678" lon="0.75835">
        <ele>98</ele>
        <time>2025-11-11T13:21:51.421Z</time>
      </trkpt>
      <trkpt lat="44.15684" lon="0.75849">
        <ele>100</ele>
        <time>2025-11-11T13:21:59.421Z</time>
      </trkpt>
      <trkpt lat="44.15706" lon="0.75946">
        <ele>98</ele>
        <time>2025-11-11T13:23:03.421Z</time>
      </trkpt>
      <trkpt lat="44.15714" lon="0.75992">
        <ele>103</ele>
        <time>2025-11-11T13:23:35.421Z</time>
      </trkpt>
      <trkpt lat="44.15718" lon="0.76002">
        <ele>106</ele>
        <time>2025-11-11T13:23:43.421Z</time>
      </trkpt>
      <trkpt lat="44.15723" lon="0.76027">
        <ele>107</ele>
        <time>2025-11-11T13:23:59.421Z</time>
      </trkpt>
      <trkpt lat="44.15727" lon="0.76076">
        <ele>114</ele>
        <time>2025-11-11T13:24:31.421Z</time>
      </trkpt>
      <trkpt lat="44.15752" lon="0.76179">
        <ele>115</ele>
        <time>2025-11-11T13:25:43.421Z</time>
      </trkpt>
      <trkpt lat="44.15764" lon="0.76209">
        <ele>116</ele>
        <time>2025-11-11T13:26:07.421Z</time>
      </trkpt>
      <trkpt lat="44.15781" lon="0.76229">
        <ele>121</ele>
        <time>2025-11-11T13:31:03.421Z</time>
      </trkpt>
      <trkpt lat="44.15788" lon="0.76229">
        <ele>121</ele>
        <time>2025-11-11T13:31:11.421Z</time>
      </trkpt>
      <trkpt lat="44.15796" lon="0.76226">
        <ele>122</ele>
        <time>2025-11-11T13:31:23.421Z</time>
      </trkpt>
      <trkpt lat="44.15808" lon="0.76235">
        <ele>121</ele>
        <time>2025-11-11T13:31:39.421Z</time>
      </trkpt>
      <trkpt lat="44.15814" lon="0.76237">
        <ele>124</ele>
        <time>2025-11-11T13:31:55.421Z</time>
      </trkpt>
      <trkpt lat="44.15832" lon="0.76236">
        <ele>127</ele>
        <time>2025-11-11T13:32:19.421Z</time>
      </trkpt>
      <trkpt lat="44.15835" lon="0.76239">
        <ele>127</ele>
        <time>2025-11-11T13:32:23.421Z</time>
      </trkpt>
      <trkpt lat="44.15844" lon="0.76242">
        <ele>124</ele>
        <time>2025-11-11T13:32:31.421Z</time>
      </trkpt>
      <trkpt lat="44.15848" lon="0.76239">
        <ele>124</ele>
        <time>2025-11-11T13:32:35.421Z</time>
      </trkpt>
      <trkpt lat="44.15857" lon="0.7622">
        <ele>125</ele>
        <time>2025-11-11T13:32:55.421Z</time>
      </trkpt>
      <trkpt lat="44.15873" lon="0.76231">
        <ele>123</ele>
        <time>2025-11-11T13:33:11.421Z</time>
      </trkpt>
      <trkpt lat="44.1588" lon="0.76233">
        <ele>125</ele>
        <time>2025-11-11T13:33:19.421Z</time>
      </trkpt>
      <trkpt lat="44.159" lon="0.76251">
        <ele>125</ele>
        <time>2025-11-11T13:33:47.421Z</time>
      </trkpt>
      <trkpt lat="44.15914" lon="0.76256">
        <ele>130</ele>
        <time>2025-11-11T13:34:03.421Z</time>
      </trkpt>
      <trkpt lat="44.15944" lon="0.76271">
        <ele>133</ele>
        <time>2025-11-11T13:34:35.421Z</time>
      </trkpt>
      <trkpt lat="44.1597" lon="0.76274">
        <ele>135</ele>
        <time>2025-11-11T13:35:07.421Z</time>
      </trkpt>
      <trkpt lat="44.15996" lon="0.76283">
        <ele>138</ele>
        <time>2025-11-11T13:35:39.421Z</time>
      </trkpt>
      <trkpt lat="44.16008" lon="0.76294">
        <ele>141</ele>
        <time>2025-11-11T13:35:55.421Z</time>
      </trkpt>
      <trkpt lat="44.16036" lon="0.76325">
        <ele>146</ele>
        <time>2025-11-11T13:36:35.421Z</time>
      </trkpt>
      <trkpt lat="44.16041" lon="0.76333">
        <ele>148</ele>
        <time>2025-11-11T13:36:43.421Z</time>
      </trkpt>
      <trkpt lat="44.16054" lon="0.76343">
        <ele>150</ele>
        <time>2025-11-11T13:36:59.421Z</time>
      </trkpt>
      <trkpt lat="44.16066" lon="0.76362">
        <ele>146</ele>
        <time>2025-11-11T13:37:15.421Z</time>
      </trkpt>
      <trkpt lat="44.1609" lon="0.76388">
        <ele>149</ele>
        <time>2025-11-11T13:37:47.421Z</time>
      </trkpt>
      <trkpt lat="44.161" lon="0.76407">
        <ele>151</ele>
        <time>2025-11-11T13:38:03.421Z</time>
      </trkpt>
      <trkpt lat="44.16123" lon="0.76432">
        <ele>154</ele>
        <time>2025-11-11T13:38:35.421Z</time>
      </trkpt>
      <trkpt lat="44.16147" lon="0.76463">
        <ele>153</ele>
        <time>2025-11-11T13:39:07.421Z</time>
      </trkpt>
      <trkpt lat="44.16187" lon="0.76514">
        <ele>163</ele>
        <time>2025-11-11T13:41:47.421Z</time>
      </trkpt>
      <trkpt lat="44.16195" lon="0.76516">
        <ele>156</ele>
        <time>2025-11-11T13:43:55.421Z</time>
      </trkpt>
      <trkpt lat="44.16211" lon="0.76514">
        <ele>157</ele>
        <time>2025-11-11T13:44:11.421Z</time>
      </trkpt>
      <trkpt lat="44.16223" lon="0.76508">
        <ele>158</ele>
        <time>2025-11-11T13:44:31.421Z</time>
      </trkpt>
      <trkpt lat="44.16235" lon="0.76533">
        <ele>161</ele>
        <time>2025-11-11T13:44:51.421Z</time>
      </trkpt>
      <trkpt lat="44.16233" lon="0.76696">
        <ele>159</ele>
        <time>2025-11-11T13:46:31.421Z</time>
      </trkpt>
      <trkpt lat="44.16228" lon="0.76709">
        <ele>158</ele>
        <time>2025-11-11T13:46:39.421Z</time>
      </trkpt>
      <trkpt lat="44.16222" lon="0.7675">
        <ele>159</ele>
        <time>2025-11-11T13:47:11.421Z</time>
      </trkpt>
      <trkpt lat="44.16216" lon="0.76773">
        <ele>161</ele>
        <time>2025-11-11T13:47:27.421Z</time>
      </trkpt>
      <trkpt lat="44.16214" lon="0.76795">
        <ele>165</ele>
        <time>2025-11-11T13:47:43.421Z</time>
      </trkpt>
      <trkpt lat="44.16194" lon="0.76885">
        <ele>165</ele>
        <time>2025-11-11T13:48:39.421Z</time>
      </trkpt>
      <trkpt lat="44.16189" lon="0.76906">
        <ele>166</ele>
        <time>2025-11-11T13:48:44.421Z</time>
      </trkpt>
      <trkpt lat="44.16184" lon="0.76933">
        <ele>167</ele>
        <time>2025-11-11T13:49:04.421Z</time>
      </trkpt>
      <trkpt lat="44.16166" lon="0.77077">
        <ele>162</ele>
        <time>2025-11-11T13:50:40.421Z</time>
      </trkpt>
      <trkpt lat="44.16158" lon="0.77122">
        <ele>162</ele>
        <time>2025-11-11T13:51:12.421Z</time>
      </trkpt>
      <trkpt lat="44.16153" lon="0.77137">
        <ele>164</ele>
        <time>2025-11-11T13:51:24.421Z</time>
      </trkpt>
      <trkpt lat="44.1615" lon="0.77144">
        <ele>162</ele>
        <time>2025-11-11T13:52:20.421Z</time>
      </trkpt>
      <trkpt lat="44.16136" lon="0.77171">
        <ele>165</ele>
        <time>2025-11-11T13:52:44.421Z</time>
      </trkpt>
      <trkpt lat="44.16128" lon="0.77179">
        <ele>166</ele>
        <time>2025-11-11T13:52:52.421Z</time>
      </trkpt>
      <trkpt lat="44.16118" lon="0.77197">
        <ele>166</ele>
        <time>2025-11-11T13:53:08.421Z</time>
      </trkpt>
      <trkpt lat="44.16113" lon="0.77221">
        <ele>165</ele>
        <time>2025-11-11T13:53:24.421Z</time>
      </trkpt>
      <trkpt lat="44.16088" lon="0.77293">
        <ele>163</ele>
        <time>2025-11-11T13:54:12.421Z</time>
      </trkpt>
      <trkpt lat="44.16081" lon="0.77306">
        <ele>165</ele>
        <time>2025-11-11T13:54:44.421Z</time>
      </trkpt>
      <trkpt lat="44.16065" lon="0.7731">
        <ele>165</ele>
        <time>2025-11-11T13:56:32.421Z</time>
      </trkpt>
      <trkpt lat="44.16061" lon="0.7732">
        <ele>165</ele>
        <time>2025-11-11T13:56:40.421Z</time>
      </trkpt>
      <trkpt lat="44.16061" lon="0.77332">
        <ele>163</ele>
        <time>2025-11-11T13:56:48.421Z</time>
      </trkpt>
      <trkpt lat="44.16057" lon="0.77359">
        <ele>161</ele>
        <time>2025-11-11T13:57:04.421Z</time>
      </trkpt>
      <trkpt lat="44.16056" lon="0.77382">
        <ele>161</ele>
        <time>2025-11-11T13:57:20.421Z</time>
      </trkpt>
      <trkpt lat="44.16053" lon="0.77407">
        <ele>158</ele>
        <time>2025-11-11T13:57:36.421Z</time>
      </trkpt>
      <trkpt lat="44.16049" lon="0.77448">
        <ele>157</ele>
        <time>2025-11-11T13:58:04.421Z</time>
      </trkpt>
      <trkpt lat="44.16044" lon="0.77519">
        <ele>155</ele>
        <time>2025-11-11T13:58:48.421Z</time>
      </trkpt>
      <trkpt lat="44.1604" lon="0.77543">
        <ele>154</ele>
        <time>2025-11-11T13:59:04.421Z</time>
      </trkpt>
      <trkpt lat="44.16025" lon="0.77573">
        <ele>155</ele>
        <time>2025-11-11T13:59:24.421Z</time>
      </trkpt>
      <trkpt lat="44.16015" lon="0.7771">
        <ele>148</ele>
        <time>2025-11-11T14:00:52.421Z</time>
      </trkpt>
      <trkpt lat="44.16017" lon="0.77721">
        <ele>147</ele>
        <time>2025-11-11T14:01:00.421Z</time>
      </trkpt>
      <trkpt lat="44.16044" lon="0.77736">
        <ele>143</ele>
        <time>2025-11-11T14:01:32.421Z</time>
      </trkpt>
      <trkpt lat="44.16056" lon="0.7774">
        <ele>142</ele>
        <time>2025-11-11T14:01:44.421Z</time>
      </trkpt>
      <trkpt lat="44.16061" lon="0.77745">
        <ele>140</ele>
        <time>2025-11-11T14:01:48.421Z</time>
      </trkpt>
      <trkpt lat="44.16067" lon="0.77757">
        <ele>141</ele>
        <time>2025-11-11T14:01:56.421Z</time>
      </trkpt>
      <trkpt lat="44.16067" lon="0.77763">
        <ele>142</ele>
        <time>2025-11-11T14:02:00.421Z</time>
      </trkpt>
      <trkpt lat="44.16071" lon="0.77773">
        <ele>140</ele>
        <time>2025-11-11T14:02:08.421Z</time>
      </trkpt>
      <trkpt lat="44.16076" lon="0.77779">
        <ele>137</ele>
        <time>2025-11-11T14:02:16.421Z</time>
      </trkpt>
      <trkpt lat="44.16084" lon="0.77785">
        <ele>135</ele>
        <time>2025-11-11T14:02:24.421Z</time>
      </trkpt>
      <trkpt lat="44.16091" lon="0.77795">
        <ele>132</ele>
        <time>2025-11-11T14:02:36.421Z</time>
      </trkpt>
      <trkpt lat="44.16103" lon="0.77795">
        <ele>132</ele>
        <time>2025-11-11T14:02:52.421Z</time>
      </trkpt>
      <trkpt lat="44.16118" lon="0.77785">
        <ele>128</ele>
        <time>2025-11-11T14:03:12.421Z</time>
      </trkpt>
      <trkpt lat="44.16126" lon="0.77785">
        <ele>128</ele>
        <time>2025-11-11T14:03:20.421Z</time>
      </trkpt>
      <trkpt lat="44.16134" lon="0.77808">
        <ele>128</ele>
        <time>2025-11-11T14:03:36.421Z</time>
      </trkpt>
      <trkpt lat="44.16134" lon="0.77817">
        <ele>129</ele>
        <time>2025-11-11T14:03:40.421Z</time>
      </trkpt>
      <trkpt lat="44.16133" lon="0.77839">
        <ele>129</ele>
        <time>2025-11-11T14:03:56.421Z</time>
      </trkpt>
      <trkpt lat="44.16125" lon="0.77847">
        <ele>126</ele>
        <time>2025-11-11T14:04:04.421Z</time>
      </trkpt>
      <trkpt lat="44.16105" lon="0.77874">
        <ele>125</ele>
        <time>2025-11-11T14:04:20.421Z</time>
      </trkpt>
      <trkpt lat="44.16091" lon="0.77882">
        <ele>118</ele>
        <time>2025-11-11T14:04:36.421Z</time>
      </trkpt>
      <trkpt lat="44.16078" lon="0.77894">
        <ele>113</ele>
        <time>2025-11-11T14:04:52.421Z</time>
      </trkpt>
      <trkpt lat="44.16047" lon="0.77942">
        <ele>103</ele>
        <time>2025-11-11T14:05:40.421Z</time>
      </trkpt>
      <trkpt lat="44.16008" lon="0.78024">
        <ele>92</ele>
        <time>2025-11-11T14:06:44.421Z</time>
      </trkpt>
      <trkpt lat="44.15974" lon="0.78081">
        <ele>99</ele>
        <time>2025-11-11T14:11:36.421Z</time>
      </trkpt>
      <trkpt lat="44.15973" lon="0.78083">
        <ele>88</ele>
        <time>2025-11-11T14:11:52.421Z</time>
      </trkpt>
      <trkpt lat="44.15951" lon="0.78079">
        <ele>88</ele>
        <time>2025-11-11T14:13:36.421Z</time>
      </trkpt>
      <trkpt lat="44.15918" lon="0.78067">
        <ele>95</ele>
        <time>2025-11-11T14:14:08.421Z</time>
      </trkpt>
      <trkpt lat="44.15906" lon="0.78062">
        <ele>95</ele>
        <time>2025-11-11T14:14:16.421Z</time>
      </trkpt>
      <trkpt lat="44.15864" lon="0.78051">
        <ele>91</ele>
        <time>2025-11-11T14:14:48.421Z</time>
      </trkpt>
      <trkpt lat="44.15848" lon="0.78042">
        <ele>91</ele>
        <time>2025-11-11T14:15:04.421Z</time>
      </trkpt>
      <trkpt lat="44.15848" lon="0.78042">
        <ele>92</ele>
        <time>2025-11-11T14:15:20.421Z</time>
      </trkpt>
      <trkpt lat="44.15839" lon="0.781">
        <ele>89</ele>
        <time>2025-11-11T14:15:52.421Z</time>
      </trkpt>
      <trkpt lat="44.15834" lon="0.78148">
        <ele>92</ele>
        <time>2025-11-11T14:16:24.421Z</time>
      </trkpt>
      <trkpt lat="44.1584" lon="0.7817">
        <ele>91</ele>
        <time>2025-11-11T14:16:40.421Z</time>
      </trkpt>
      <trkpt lat="44.15845" lon="0.78179">
        <ele>91</ele>
        <time>2025-11-11T14:16:48.421Z</time>
      </trkpt>
      <trkpt lat="44.15864" lon="0.78195">
        <ele>97</ele>
        <time>2025-11-11T14:17:12.421Z</time>
      </trkpt>
      <trkpt lat="44.15874" lon="0.78213">
        <ele>103</ele>
        <time>2025-11-11T14:17:28.421Z</time>
      </trkpt>
      <trkpt lat="44.15872" lon="0.78247">
        <ele>105</ele>
        <time>2025-11-11T14:18:00.421Z</time>
      </trkpt>
      <trkpt lat="44.15866" lon="0.78265">
        <ele>112</ele>
        <time>2025-11-11T14:18:40.421Z</time>
      </trkpt>
      <trkpt lat="44.15862" lon="0.78292">
        <ele>110</ele>
        <time>2025-11-11T14:19:08.421Z</time>
      </trkpt>
      <trkpt lat="44.15862" lon="0.78297">
        <ele>111</ele>
        <time>2025-11-11T14:19:12.421Z</time>
      </trkpt>
      <trkpt lat="44.15859" lon="0.78321">
        <ele>110</ele>
        <time>2025-11-11T14:19:28.421Z</time>
      </trkpt>
      <trkpt lat="44.1586" lon="0.78343">
        <ele>114</ele>
        <time>2025-11-11T14:19:44.421Z</time>
      </trkpt>
      <trkpt lat="44.15851" lon="0.78385">
        <ele>118</ele>
        <time>2025-11-11T14:20:32.421Z</time>
      </trkpt>
      <trkpt lat="44.15853" lon="0.78406">
        <ele>118</ele>
        <time>2025-11-11T14:20:56.421Z</time>
      </trkpt>
      <trkpt lat="44.15854" lon="0.78406">
        <ele>132</ele>
        <time>2025-11-11T14:21:12.421Z</time>
      </trkpt>
      <trkpt lat="44.15856" lon="0.7844">
        <ele>127</ele>
        <time>2025-11-11T14:21:44.421Z</time>
      </trkpt>
      <trkpt lat="44.15867" lon="0.78482">
        <ele>127</ele>
        <time>2025-11-11T14:22:16.421Z</time>
      </trkpt>
      <trkpt lat="44.15867" lon="0.78506">
        <ele>128</ele>
        <time>2025-11-11T14:23:20.421Z</time>
      </trkpt>
      <trkpt lat="44.15881" lon="0.78571">
        <ele>130</ele>
        <time>2025-11-11T14:24:48.421Z</time>
      </trkpt>
      <trkpt lat="44.15886" lon="0.78579">
        <ele>132</ele>
        <time>2025-11-11T14:24:56.421Z</time>
      </trkpt>
      <trkpt lat="44.15897" lon="0.78605">
        <ele>136</ele>
        <time>2025-11-11T14:25:36.421Z</time>
      </trkpt>
      <trkpt lat="44.15904" lon="0.78619">
        <ele>135</ele>
        <time>2025-11-11T14:26:24.421Z</time>
      </trkpt>
      <trkpt lat="44.15909" lon="0.78638">
        <ele>138</ele>
        <time>2025-11-11T14:26:40.421Z</time>
      </trkpt>
      <trkpt lat="44.15922" lon="0.78663">
        <ele>143</ele>
        <time>2025-11-11T14:27:04.421Z</time>
      </trkpt>
      <trkpt lat="44.15927" lon="0.78683">
        <ele>146</ele>
        <time>2025-11-11T14:28:24.421Z</time>
      </trkpt>
      <trkpt lat="44.15932" lon="0.78694">
        <ele>144</ele>
        <time>2025-11-11T14:29:28.421Z</time>
      </trkpt>
      <trkpt lat="44.15943" lon="0.7873">
        <ele>144</ele>
        <time>2025-11-11T14:29:52.421Z</time>
      </trkpt>
      <trkpt lat="44.1595" lon="0.7874">
        <ele>142</ele>
        <time>2025-11-11T14:30:00.421Z</time>
      </trkpt>
      <trkpt lat="44.15958" lon="0.78749">
        <ele>140</ele>
        <time>2025-11-11T14:30:08.421Z</time>
      </trkpt>
      <trkpt lat="44.15967" lon="0.78752">
        <ele>140</ele>
        <time>2025-11-11T14:30:16.421Z</time>
      </trkpt>
      <trkpt lat="44.15987" lon="0.78754">
        <ele>138</ele>
        <time>2025-11-11T14:30:32.421Z</time>
      </trkpt>
      <trkpt lat="44.16015" lon="0.78752">
        <ele>136</ele>
        <time>2025-11-11T14:31:00.421Z</time>
      </trkpt>
      <trkpt lat="44.1602" lon="0.78776">
        <ele>139</ele>
        <time>2025-11-11T14:31:16.421Z</time>
      </trkpt>
      <trkpt lat="44.16023" lon="0.78827">
        <ele>138</ele>
        <time>2025-11-11T14:31:48.421Z</time>
      </trkpt>
      <trkpt lat="44.16024" lon="0.78874">
        <ele>144</ele>
        <time>2025-11-11T14:32:20.421Z</time>
      </trkpt>
      <trkpt lat="44.16019" lon="0.7892">
        <ele>144</ele>
        <time>2025-11-11T14:32:52.421Z</time>
      </trkpt>
      <trkpt lat="44.16011" lon="0.79007">
        <ele>158</ele>
        <time>2025-11-11T14:34:00.421Z</time>
      </trkpt>
      <trkpt lat="44.16014" lon="0.79014">
        <ele>161</ele>
        <time>2025-11-11T14:34:08.421Z</time>
      </trkpt>
      <trkpt lat="44.16016" lon="0.79023">
        <ele>163</ele>
        <time>2025-11-11T14:34:16.421Z</time>
      </trkpt>
      <trkpt lat="44.16019" lon="0.79034">
        <ele>163</ele>
        <time>2025-11-11T14:34:24.421Z</time>
      </trkpt>
      <trkpt lat="44.16025" lon="0.79054">
        <ele>161</ele>
        <time>2025-11-11T14:34:40.421Z</time>
      </trkpt>
      <trkpt lat="44.16038" lon="0.79099">
        <ele>155</ele>
        <time>2025-11-11T14:35:12.421Z</time>
      </trkpt>
      <trkpt lat="44.16053" lon="0.79131">
        <ele>159</ele>
        <time>2025-11-11T14:36:16.421Z</time>
      </trkpt>
      <trkpt lat="44.16068" lon="0.79185">
        <ele>163</ele>
        <time>2025-11-11T14:37:04.421Z</time>
      </trkpt>
      <trkpt lat="44.16066" lon="0.79193">
        <ele>165</ele>
        <time>2025-11-11T14:37:20.421Z</time>
      </trkpt>
      <trkpt lat="44.16062" lon="0.79192">
        <ele>165</ele>
        <time>2025-11-11T14:37:44.421Z</time>
      </trkpt>
      <trkpt lat="44.16053" lon="0.79188">
        <ele>164</ele>
        <time>2025-11-11T14:38:04.421Z</time>
      </trkpt>
      <trkpt lat="44.16043" lon="0.79184">
        <ele>162</ele>
        <time>2025-11-11T14:38:12.421Z</time>
      </trkpt>
      <trkpt lat="44.16026" lon="0.79171">
        <ele>161</ele>
        <time>2025-11-11T14:38:28.421Z</time>
      </trkpt>
      <trkpt lat="44.15976" lon="0.79144">
        <ele>160</ele>
        <time>2025-11-11T14:39:16.421Z</time>
      </trkpt>
      <trkpt lat="44.1594" lon="0.79126">
        <ele>161</ele>
        <time>2025-11-11T14:39:48.421Z</time>
      </trkpt>
      <trkpt lat="44.15924" lon="0.79114">
        <ele>161</ele>
        <time>2025-11-11T14:40:04.421Z</time>
      </trkpt>
      <trkpt lat="44.15907" lon="0.79101">
        <ele>160</ele>
        <time>2025-11-11T14:40:20.421Z</time>
      </trkpt>
      <trkpt lat="44.15881" lon="0.79079">
        <ele>168</ele>
        <time>2025-11-11T14:40:44.421Z</time>
      </trkpt>
      <trkpt lat="44.15821" lon="0.79011">
        <ele>160</ele>
        <time>2025-11-11T14:41:48.421Z</time>
      </trkpt>
      <trkpt lat="44.1576" lon="0.78947">
        <ele>162</ele>
        <time>2025-11-11T14:42:52.421Z</time>
      </trkpt>
      <trkpt lat="44.15744" lon="0.78934">
        <ele>163</ele>
        <time>2025-11-11T14:43:08.421Z</time>
      </trkpt>
      <trkpt lat="44.15704" lon="0.7891">
        <ele>165</ele>
        <time>2025-11-11T14:43:48.421Z</time>
      </trkpt>
      <trkpt lat="44.15686" lon="0.78906">
        <ele>163</ele>
        <time>2025-11-11T14:44:04.421Z</time>
      </trkpt>
      <trkpt lat="44.1563" lon="0.78916">
        <ele>161</ele>
        <time>2025-11-11T14:45:24.421Z</time>
      </trkpt>
      <trkpt lat="44.15611" lon="0.78904">
        <ele>159</ele>
        <time>2025-11-11T14:45:40.421Z</time>
      </trkpt>
      <trkpt lat="44.1559" lon="0.78874">
        <ele>150</ele>
        <time>2025-11-11T14:46:44.421Z</time>
      </trkpt>
      <trkpt lat="44.1556" lon="0.78817">
        <ele>146</ele>
        <time>2025-11-11T14:48:24.421Z</time>
      </trkpt>
      <trkpt lat="44.15518" lon="0.78774">
        <ele>135</ele>
        <time>2025-11-11T14:49:12.421Z</time>
      </trkpt>
      <trkpt lat="44.15502" lon="0.78763">
        <ele>132</ele>
        <time>2025-11-11T14:49:28.421Z</time>
      </trkpt>
      <trkpt lat="44.15451" lon="0.78749">
        <ele>123</ele>
        <time>2025-11-11T14:50:32.421Z</time>
      </trkpt>
      <trkpt lat="44.15435" lon="0.78739">
        <ele>120</ele>
        <time>2025-11-11T14:50:48.421Z</time>
      </trkpt>
      <trkpt lat="44.15425" lon="0.78736">
        <ele>120</ele>
        <time>2025-11-11T14:50:52.421Z</time>
      </trkpt>
      <trkpt lat="44.15383" lon="0.78707">
        <ele>117</ele>
        <time>2025-11-11T14:51:16.421Z</time>
      </trkpt>
      <trkpt lat="44.15357" lon="0.78683">
        <ele>105</ele>
        <time>2025-11-11T14:51:40.421Z</time>
      </trkpt>
      <trkpt lat="44.15337" lon="0.7867">
        <ele>101</ele>
        <time>2025-11-11T14:51:56.421Z</time>
      </trkpt>
      <trkpt lat="44.15317" lon="0.78655">
        <ele>99</ele>
        <time>2025-11-11T14:52:12.421Z</time>
      </trkpt>
      <trkpt lat="44.15308" lon="0.78653">
        <ele>98</ele>
        <time>2025-11-11T14:52:20.421Z</time>
      </trkpt>
      <trkpt lat="44.15298" lon="0.78657">
        <ele>99</ele>
        <time>2025-11-11T14:52:28.421Z</time>
      </trkpt>
      <trkpt lat="44.15272" lon="0.78661">
        <ele>96</ele>
        <time>2025-11-11T14:52:48.421Z</time>
      </trkpt>
      <trkpt lat="44.15266" lon="0.78614">
        <ele>92</ele>
        <time>2025-11-11T14:53:12.421Z</time>
      </trkpt>
      <trkpt lat="44.15266" lon="0.78608">
        <ele>92</ele>
        <time>2025-11-11T14:53:16.421Z</time>
      </trkpt>
      <trkpt lat="44.1525" lon="0.78555">
        <ele>90</ele>
        <time>2025-11-11T14:53:48.421Z</time>
      </trkpt>
      <trkpt lat="44.15245" lon="0.78525">
        <ele>92</ele>
        <time>2025-11-11T14:54:04.421Z</time>
      </trkpt>
      <trkpt lat="44.15243" lon="0.78498">
        <ele>87</ele>
        <time>2025-11-11T14:54:20.421Z</time>
      </trkpt>
      <trkpt lat="44.15232" lon="0.78444">
        <ele>90</ele>
        <time>2025-11-11T14:54:52.421Z</time>
      </trkpt>
      <trkpt lat="44.15223" lon="0.78413">
        <ele>88</ele>
        <time>2025-11-11T14:55:16.421Z</time>
      </trkpt>
      <trkpt lat="44.15218" lon="0.78401">
        <ele>92</ele>
        <time>2025-11-11T14:55:24.421Z</time>
      </trkpt>
      <trkpt lat="44.15212" lon="0.78379">
        <ele>92</ele>
        <time>2025-11-11T14:55:36.421Z</time>
      </trkpt>
      <trkpt lat="44.15204" lon="0.78345">
        <ele>92</ele>
        <time>2025-11-11T14:55:56.421Z</time>
      </trkpt>
      <trkpt lat="44.152" lon="0.78333">
        <ele>92</ele>
        <time>2025-11-11T14:56:04.421Z</time>
      </trkpt>
      <trkpt lat="44.15191" lon="0.7828">
        <ele>92</ele>
        <time>2025-11-11T14:56:36.421Z</time>
      </trkpt>
      <trkpt lat="44.15192" lon="0.78277">
        <ele>92</ele>
        <time>2025-11-11T14:56:38.421Z</time>
      </trkpt>
      <trkpt lat="44.15184" lon="0.78248">
        <ele>86</ele>
        <time>2025-11-11T14:56:54.421Z</time>
      </trkpt>
      <trkpt lat="44.15181" lon="0.78215">
        <ele>84</ele>
        <time>2025-11-11T14:57:10.421Z</time>
      </trkpt>
      <trkpt lat="44.15183" lon="0.78188">
        <ele>81</ele>
        <time>2025-11-11T14:57:26.421Z</time>
      </trkpt>
      <trkpt lat="44.15182" lon="0.78179">
        <ele>79</ele>
        <time>2025-11-11T14:57:32.421Z</time>
      </trkpt>
      <trkpt lat="44.15184" lon="0.7814">
        <ele>80</ele>
        <time>2025-11-11T14:57:56.421Z</time>
      </trkpt>
      <trkpt lat="44.15181" lon="0.78109">
        <ele>83</ele>
        <time>2025-11-11T14:58:12.421Z</time>
      </trkpt>
      <trkpt lat="44.15179" lon="0.78102">
        <ele>84</ele>
        <time>2025-11-11T14:58:16.421Z</time>
      </trkpt>
      <trkpt lat="44.15181" lon="0.78085">
        <ele>85</ele>
        <time>2025-11-11T14:58:24.421Z</time>
      </trkpt>
      <trkpt lat="44.15188" lon="0.78071">
        <ele>83</ele>
        <time>2025-11-11T14:58:32.421Z</time>
      </trkpt>
      <trkpt lat="44.15187" lon="0.78064">
        <ele>81</ele>
        <time>2025-11-11T14:58:36.421Z</time>
      </trkpt>
      <trkpt lat="44.15196" lon="0.78041">
        <ele>77</ele>
        <time>2025-11-11T14:58:52.421Z</time>
      </trkpt>
      <trkpt lat="44.15205" lon="0.78024">
        <ele>75</ele>
        <time>2025-11-11T14:59:08.421Z</time>
      </trkpt>
      <trkpt lat="44.15213" lon="0.78">
        <ele>72</ele>
        <time>2025-11-11T14:59:24.421Z</time>
      </trkpt>
      <trkpt lat="44.15217" lon="0.77996">
        <ele>71</ele>
        <time>2025-11-11T14:59:28.421Z</time>
      </trkpt>
      <trkpt lat="44.15229" lon="0.77966">
        <ele>75</ele>
        <time>2025-11-11T14:59:48.421Z</time>
      </trkpt>
      <trkpt lat="44.15234" lon="0.77946">
        <ele>74</ele>
        <time>2025-11-11T15:02:46.421Z</time>
      </trkpt>
      <trkpt lat="44.15258" lon="0.77923">
        <ele>73</ele>
        <time>2025-11-11T15:05:18.421Z</time>
      </trkpt>
      <trkpt lat="44.15278" lon="0.77908">
        <ele>71</ele>
        <time>2025-11-11T15:05:38.421Z</time>
      </trkpt>
      <trkpt lat="44.15289" lon="0.77886">
        <ele>71</ele>
        <time>2025-11-11T15:05:54.421Z</time>
      </trkpt>
      <trkpt lat="44.15284" lon="0.77858">
        <ele>72</ele>
        <time>2025-11-11T15:06:10.421Z</time>
      </trkpt>
      <trkpt lat="44.15271" lon="0.77831">
        <ele>78</ele>
        <time>2025-11-11T15:06:30.421Z</time>
      </trkpt>
      <trkpt lat="44.15269" lon="0.77818">
        <ele>80</ele>
        <time>2025-11-11T15:06:38.421Z</time>
      </trkpt>
      <trkpt lat="44.1526" lon="0.77793">
        <ele>84</ele>
        <time>2025-11-11T15:07:00.421Z</time>
      </trkpt>
      <trkpt lat="44.15245" lon="0.77759">
        <ele>85</ele>
        <time>2025-11-11T15:07:24.421Z</time>
      </trkpt>
      <trkpt lat="44.15239" lon="0.77736">
        <ele>86</ele>
        <time>2025-11-11T15:07:40.421Z</time>
      </trkpt>
      <trkpt lat="44.15236" lon="0.77731">
        <ele>86</ele>
        <time>2025-11-11T15:07:44.421Z</time>
      </trkpt>
      <trkpt lat="44.15236" lon="0.77725">
        <ele>85</ele>
        <time>2025-11-11T15:07:48.421Z</time>
      </trkpt>
      <trkpt lat="44.15217" lon="0.77681">
        <ele>87</ele>
        <time>2025-11-11T15:08:20.421Z</time>
      </trkpt>
      <trkpt lat="44.15203" lon="0.77635">
        <ele>83</ele>
        <time>2025-11-11T15:08:48.421Z</time>
      </trkpt>
      <trkpt lat="44.152" lon="0.77632">
        <ele>79</ele>
        <time>2025-11-11T15:09:04.421Z</time>
      </trkpt>
      <trkpt lat="44.15192" lon="0.77667">
        <ele>77</ele>
        <time>2025-11-11T15:09:36.421Z</time>
      </trkpt>
      <trkpt lat="44.15187" lon="0.77678">
        <ele>75</ele>
        <time>2025-11-11T15:09:44.421Z</time>
      </trkpt>
      <trkpt lat="44.15179" lon="0.77687">
        <ele>75</ele>
        <time>2025-11-11T15:09:52.421Z</time>
      </trkpt>
      <trkpt lat="44.15175" lon="0.77689">
        <ele>78</ele>
        <time>2025-11-11T15:09:56.421Z</time>
      </trkpt>
      <trkpt lat="44.15162" lon="0.77685">
        <ele>74</ele>
        <time>2025-11-11T15:10:04.421Z</time>
      </trkpt>
      <trkpt lat="44.1514" lon="0.77652">
        <ele>82</ele>
        <time>2025-11-11T15:10:36.421Z</time>
      </trkpt>
      <trkpt lat="44.15131" lon="0.77645">
        <ele>82</ele>
        <time>2025-11-11T15:10:44.421Z</time>
      </trkpt>
      <trkpt lat="44.15118" lon="0.77638">
        <ele>78</ele>
        <time>2025-11-11T15:10:52.421Z</time>
      </trkpt>
      <trkpt lat="44.15112" lon="0.77639">
        <ele>76</ele>
        <time>2025-11-11T15:11:00.421Z</time>
      </trkpt>
      <trkpt lat="44.1508" lon="0.77633">
        <ele>76</ele>
        <time>2025-11-11T15:11:28.421Z</time>
      </trkpt>
      <trkpt lat="44.15066" lon="0.77619">
        <ele>84</ele>
        <time>2025-11-11T15:11:44.421Z</time>
      </trkpt>
      <trkpt lat="44.15054" lon="0.77596">
        <ele>82</ele>
        <time>2025-11-11T15:12:00.421Z</time>
      </trkpt>
      <trkpt lat="44.15047" lon="0.77588">
        <ele>80</ele>
        <time>2025-11-11T15:12:08.421Z</time>
      </trkpt>
      <trkpt lat="44.1504" lon="0.77577">
        <ele>78</ele>
        <time>2025-11-11T15:12:24.421Z</time>
      </trkpt>
      <trkpt lat="44.15021" lon="0.77532">
        <ele>74</ele>
        <time>2025-11-11T15:12:56.421Z</time>
      </trkpt>
      <trkpt lat="44.15015" lon="0.77496">
        <ele>76</ele>
        <time>2025-11-11T15:13:20.421Z</time>
      </trkpt>
      <trkpt lat="44.15011" lon="0.77484">
        <ele>77</ele>
        <time>2025-11-11T15:13:28.421Z</time>
      </trkpt>
      <trkpt lat="44.15009" lon="0.77467">
        <ele>79</ele>
        <time>2025-11-11T15:13:44.421Z</time>
      </trkpt>
      <trkpt lat="44.14988" lon="0.77396">
        <ele>87</ele>
        <time>2025-11-11T15:15:20.421Z</time>
      </trkpt>
      <trkpt lat="44.14982" lon="0.7737">
        <ele>89</ele>
        <time>2025-11-11T15:15:36.421Z</time>
      </trkpt>
      <trkpt lat="44.14982" lon="0.77364">
        <ele>90</ele>
        <time>2025-11-11T15:15:40.421Z</time>
      </trkpt>
      <trkpt lat="44.14972" lon="0.7734">
        <ele>92</ele>
        <time>2025-11-11T15:15:56.421Z</time>
      </trkpt>
      <trkpt lat="44.14956" lon="0.77261">
        <ele>96</ele>
        <time>2025-11-11T15:16:52.421Z</time>
      </trkpt>
      <trkpt lat="44.14957" lon="0.77249">
        <ele>96</ele>
        <time>2025-11-11T15:17:00.421Z</time>
      </trkpt>
      <trkpt lat="44.14953" lon="0.77226">
        <ele>96</ele>
        <time>2025-11-11T15:17:16.421Z</time>
      </trkpt>
      <trkpt lat="44.14953" lon="0.77216">
        <ele>87</ele>
        <time>2025-11-11T15:17:32.421Z</time>
      </trkpt>
      <trkpt lat="44.14945" lon="0.77184">
        <ele>92</ele>
        <time>2025-11-11T15:18:04.421Z</time>
      </trkpt>
      <trkpt lat="44.14942" lon="0.77154">
        <ele>84</ele>
        <time>2025-11-11T15:18:36.421Z</time>
      </trkpt>
      <trkpt lat="44.14941" lon="0.7715">
        <ele>80</ele>
        <time>2025-11-11T15:19:24.421Z</time>
      </trkpt>
      <trkpt lat="44.14935" lon="0.77145">
        <ele>80</ele>
        <time>2025-11-11T15:19:32.421Z</time>
      </trkpt>
      <trkpt lat="44.14926" lon="0.77143">
        <ele>81</ele>
        <time>2025-11-11T15:19:40.421Z</time>
      </trkpt>
      <trkpt lat="44.14895" lon="0.77159">
        <ele>84</ele>
        <time>2025-11-11T15:20:08.421Z</time>
      </trkpt>
      <trkpt lat="44.1488" lon="0.77155">
        <ele>87</ele>
        <time>2025-11-11T15:20:24.421Z</time>
      </trkpt>
      <trkpt lat="44.14866" lon="0.77164">
        <ele>86</ele>
        <time>2025-11-11T15:20:36.421Z</time>
      </trkpt>
      <trkpt lat="44.14856" lon="0.77172">
        <ele>87</ele>
        <time>2025-11-11T15:20:48.421Z</time>
      </trkpt>
      <trkpt lat="44.14837" lon="0.77181">
        <ele>88</ele>
        <time>2025-11-11T15:21:08.421Z</time>
      </trkpt>
      <trkpt lat="44.14827" lon="0.77167">
        <ele>85</ele>
        <time>2025-11-11T15:21:24.421Z</time>
      </trkpt>
      <trkpt lat="44.14801" lon="0.7714">
        <ele>79</ele>
        <time>2025-11-11T15:21:48.421Z</time>
      </trkpt>
      <trkpt lat="44.14785" lon="0.77117">
        <ele>79</ele>
        <time>2025-11-11T15:22:04.421Z</time>
      </trkpt>
      <trkpt lat="44.14755" lon="0.77083">
        <ele>75</ele>
        <time>2025-11-11T15:22:36.421Z</time>
      </trkpt>
      <trkpt lat="44.14743" lon="0.77062">
        <ele>64</ele>
        <time>2025-11-11T15:22:56.421Z</time>
      </trkpt>
      <trkpt lat="44.14745" lon="0.77057">
        <ele>60</ele>
        <time>2025-11-11T15:23:12.421Z</time>
      </trkpt>
      <trkpt lat="44.14761" lon="0.77051">
        <ele>49</ele>
        <time>2025-11-11T15:24:40.421Z</time>
      </trkpt>
      <trkpt lat="44.14781" lon="0.77044">
        <ele>48</ele>
        <time>2025-11-11T15:24:56.421Z</time>
      </trkpt>
      <trkpt lat="44.14798" lon="0.77034">
        <ele>49</ele>
        <time>2025-11-11T15:25:12.421Z</time>
      </trkpt>
      <trkpt lat="44.14815" lon="0.77027">
        <ele>46</ele>
        <time>2025-11-11T15:25:28.421Z</time>
      </trkpt>
      <trkpt lat="44.14851" lon="0.77">
        <ele>46</ele>
        <time>2025-11-11T15:26:00.421Z</time>
      </trkpt>
      <trkpt lat="44.14883" lon="0.76964">
        <ele>46</ele>
        <time>2025-11-11T15:26:32.421Z</time>
      </trkpt>
      <trkpt lat="44.14936" lon="0.76881">
        <ele>45</ele>
        <time>2025-11-11T15:27:36.421Z</time>
      </trkpt>
      <trkpt lat="44.14965" lon="0.76843">
        <ele>45</ele>
        <time>2025-11-11T15:28:08.421Z</time>
      </trkpt>
      <trkpt lat="44.1498" lon="0.76827">
        <ele>44</ele>
        <time>2025-11-11T15:28:24.421Z</time>
      </trkpt>
      <trkpt lat="44.14995" lon="0.76806">
        <ele>46</ele>
        <time>2025-11-11T15:28:40.421Z</time>
      </trkpt>
      <trkpt lat="44.15019" lon="0.76779">
        <ele>46</ele>
        <time>2025-11-11T15:29:04.421Z</time>
      </trkpt>
      <trkpt lat="44.15025" lon="0.7677">
        <ele>46</ele>
        <time>2025-11-11T15:29:12.421Z</time>
      </trkpt>
      <trkpt lat="44.15059" lon="0.76675">
        <ele>47</ele>
        <time>2025-11-11T15:30:16.421Z</time>
      </trkpt>
      <trkpt lat="44.15059" lon="0.76666">
        <ele>46</ele>
        <time>2025-11-11T15:30:24.421Z</time>
      </trkpt>
      <trkpt lat="44.15021" lon="0.76606">
        <ele>44</ele>
        <time>2025-11-11T15:31:12.421Z</time>
      </trkpt>
      <trkpt lat="44.15014" lon="0.76581">
        <ele>43</ele>
        <time>2025-11-11T15:31:28.421Z</time>
      </trkpt>
      <trkpt lat="44.14984" lon="0.76517">
        <ele>43</ele>
        <time>2025-11-11T15:32:16.421Z</time>
      </trkpt>
      <trkpt lat="44.14988" lon="0.76502">
        <ele>44</ele>
        <time>2025-11-11T15:33:28.421Z</time>
      </trkpt>
      <trkpt lat="44.14997" lon="0.76503">
        <ele>45</ele>
        <time>2025-11-11T15:33:36.421Z</time>
      </trkpt>
      <trkpt lat="44.15001" lon="0.76501">
        <ele>45</ele>
        <time>2025-11-11T15:33:40.421Z</time>
      </trkpt>
      <trkpt lat="44.15007" lon="0.76491">
        <ele>44</ele>
        <time>2025-11-11T15:33:48.421Z</time>
      </trkpt>
      <trkpt lat="44.15012" lon="0.7648">
        <ele>43</ele>
        <time>2025-11-11T15:33:56.421Z</time>
      </trkpt>
      <trkpt lat="44.15017" lon="0.76428">
        <ele>45</ele>
        <time>2025-11-11T15:34:28.421Z</time>
      </trkpt>
      <trkpt lat="44.15025" lon="0.76326">
        <ele>44</ele>
        <time>2025-11-11T15:35:32.421Z</time>
      </trkpt>
      <trkpt lat="44.15026" lon="0.76223">
        <ele>43</ele>
        <time>2025-11-11T15:36:36.421Z</time>
      </trkpt>
      <trkpt lat="44.15011" lon="0.76062">
        <ele>44</ele>
        <time>2025-11-11T15:38:12.421Z</time>
      </trkpt>
      <trkpt lat="44.15009" lon="0.75988">
        <ele>46</ele>
        <time>2025-11-11T15:39:00.421Z</time>
      </trkpt>
      <trkpt lat="44.15005" lon="0.75966">
        <ele>44</ele>
        <time>2025-11-11T15:39:16.421Z</time>
      </trkpt>
      <trkpt lat="44.14995" lon="0.7594">
        <ele>43</ele>
        <time>2025-11-11T15:39:32.421Z</time>
      </trkpt>
      <trkpt lat="44.14981" lon="0.75921">
        <ele>44</ele>
        <time>2025-11-11T15:39:48.421Z</time>
      </trkpt>
      <trkpt lat="44.14967" lon="0.75904">
        <ele>43</ele>
        <time>2025-11-11T15:40:04.421Z</time>
      </trkpt>
      <trkpt lat="44.14918" lon="0.7586">
        <ele>48</ele>
        <time>2025-11-11T15:40:52.421Z</time>
      </trkpt>
      <trkpt lat="44.14904" lon="0.75845">
        <ele>48</ele>
        <time>2025-11-11T15:41:08.421Z</time>
      </trkpt>
      <trkpt lat="44.14902" lon="0.75837">
        <ele>45</ele>
        <time>2025-11-11T15:41:24.421Z</time>
      </trkpt>
      <trkpt lat="44.14906" lon="0.75827">
        <ele>48</ele>
        <time>2025-11-11T15:42:24.421Z</time>
      </trkpt>
      <trkpt lat="44.14948" lon="0.75662">
        <ele>46</ele>
        <time>2025-11-11T15:44:00.421Z</time>
      </trkpt>
      <trkpt lat="44.14941" lon="0.75653">
        <ele>47</ele>
        <time>2025-11-11T15:44:08.421Z</time>
      </trkpt>
      <trkpt lat="44.1493" lon="0.75624">
        <ele>46</ele>
        <time>2025-11-11T15:44:28.421Z</time>
      </trkpt>
      <trkpt lat="44.14935" lon="0.75594">
        <ele>45</ele>
        <time>2025-11-11T15:44:44.421Z</time>
      </trkpt>
      <trkpt lat="44.14949" lon="0.75563">
        <ele>41</ele>
        <time>2025-11-11T15:45:04.421Z</time>
      </trkpt>
      <trkpt lat="44.1495" lon="0.7554">
        <ele>43</ele>
        <time>2025-11-11T15:45:20.421Z</time>
      </trkpt>
      <trkpt lat="44.14958" lon="0.75522">
        <ele>43</ele>
        <time>2025-11-11T15:45:44.421Z</time>
      </trkpt>
    </trkseg>
  </trk>
</gpx>